sensor_id;sensor_type;location;lat;lon;timestamp;P1;durP1;ratioP1;P2;durP2;ratioP2
31764;SDS011;18338;53.240;8.798;2023-01-16T00:01:38;5.03;;;1.95;;
31764;SDS011;18338;53.240;8.798;2023-01-16T00:04:05;6.55;;;2.08;;
31764;SDS011;18338;53.240;8.798;2023-01-16T00:06:32;3.08;;;2.25;;
31764;SDS011;18338;53.240;8.798;2023-01-16T00:09:01;3.88;;;2.13;;
31764;SDS011;18338;53.240;8.798;2023-01-16T00:11:30;5.82;;;2.40;;
31764;SDS011;18338;53.240;8.798;2023-01-16T00:13:56;3.08;;;1.80;;
31764;SDS011;18338;53.240;8.798;2023-01-16T00:16:25;2.85;;;1.73;;
31764;SDS011;18338;53.240;8.798;2023-01-16T00:18:53;3.13;;;2.00;;
31764;SDS011;18338;53.240;8.798;2023-01-16T00:21:20;2.65;;;1.77;;
31764;SDS011;18338;53.240;8.798;2023-01-16T00:23:56;2.23;;;1.37;;
31764;SDS011;18338;53.240;8.798;2023-01-16T00:26:24;2.67;;;1.58;;
31764;SDS011;18338;53.240;8.798;2023-01-16T00:28:52;2.67;;;1.45;;
31764;SDS011;18338;53.240;8.798;2023-01-16T00:31:18;2.88;;;1.55;;
31764;SDS011;18338;53.240;8.798;2023-01-16T00:33:45;3.03;;;1.40;;
31764;SDS011;18338;53.240;8.798;2023-01-16T00:36:12;2.75;;;1.55;;
31764;SDS011;18338;53.240;8.798;2023-01-16T00:38:39;2.30;;;1.40;;
31764;SDS011;18338;53.240;8.798;2023-01-16T00:41:05;6.22;;;1.65;;
31764;SDS011;18338;53.240;8.798;2023-01-16T00:43:32;1.77;;;1.50;;
31764;SDS011;18338;53.240;8.798;2023-01-16T00:46:00;2.03;;;1.27;;
31764;SDS011;18338;53.240;8.798;2023-01-16T00:48:27;1.88;;;1.50;;
31764;SDS011;18338;53.240;8.798;2023-01-16T00:50:53;1.75;;;1.10;;
31764;SDS011;18338;53.240;8.798;2023-01-16T00:53:20;4.13;;;1.50;;
31764;SDS011;18338;53.240;8.798;2023-01-16T00:55:47;2.70;;;1.30;;
31764;SDS011;18338;53.240;8.798;2023-01-16T00:58:13;3.28;;;1.33;;
31764;SDS011;18338;53.240;8.798;2023-01-16T01:00:40;3.23;;;1.40;;
31764;SDS011;18338;53.240;8.798;2023-01-16T01:03:07;2.73;;;1.30;;
31764;SDS011;18338;53.240;8.798;2023-01-16T01:05:37;2.53;;;1.10;;
31764;SDS011;18338;53.240;8.798;2023-01-16T01:08:04;3.30;;;1.35;;
31764;SDS011;18338;53.240;8.798;2023-01-16T01:10:31;2.83;;;1.45;;
31764;SDS011;18338;53.240;8.798;2023-01-16T01:12:58;2.40;;;1.30;;
31764;SDS011;18338;53.240;8.798;2023-01-16T01:15:25;4.32;;;1.42;;
31764;SDS011;18338;53.240;8.798;2023-01-16T01:17:51;3.58;;;1.20;;
31764;SDS011;18338;53.240;8.798;2023-01-16T01:20:18;2.65;;;1.77;;
31764;SDS011;18338;53.240;8.798;2023-01-16T01:22:45;2.73;;;1.80;;
31764;SDS011;18338;53.240;8.798;2023-01-16T01:25:12;3.10;;;1.80;;
31764;SDS011;18338;53.240;8.798;2023-01-16T01:27:39;6.00;;;2.53;;
31764;SDS011;18338;53.240;8.798;2023-01-16T01:30:06;3.20;;;2.10;;
31764;SDS011;18338;53.240;8.798;2023-01-16T01:32:33;4.30;;;1.83;;
31764;SDS011;18338;53.240;8.798;2023-01-16T01:34:59;3.70;;;1.93;;
31764;SDS011;18338;53.240;8.798;2023-01-16T01:37:26;4.37;;;1.87;;
31764;SDS011;18338;53.240;8.798;2023-01-16T01:39:53;3.13;;;1.80;;
31764;SDS011;18338;53.240;8.798;2023-01-16T01:42:20;5.07;;;2.00;;
31764;SDS011;18338;53.240;8.798;2023-01-16T01:45:06;2.88;;;1.60;;
31764;SDS011;18338;53.240;8.798;2023-01-16T01:47:56;3.80;;;1.80;;
31764;SDS011;18338;53.240;8.798;2023-01-16T01:50:34;5.03;;;2.22;;
31764;SDS011;18338;53.240;8.798;2023-01-16T01:53:08;6.07;;;2.20;;
31764;SDS011;18338;53.240;8.798;2023-01-16T01:55:40;5.70;;;2.40;;
31764;SDS011;18338;53.240;8.798;2023-01-16T01:58:10;5.13;;;2.10;;
31764;SDS011;18338;53.240;8.798;2023-01-16T02:00:42;5.07;;;1.73;;
31764;SDS011;18338;53.240;8.798;2023-01-16T02:03:10;5.38;;;1.95;;
31764;SDS011;18338;53.240;8.798;2023-01-16T02:05:45;4.75;;;2.10;;
31764;SDS011;18338;53.240;8.798;2023-01-16T02:08:16;6.28;;;2.00;;
31764;SDS011;18338;53.240;8.798;2023-01-16T02:10:49;3.73;;;1.70;;
31764;SDS011;18338;53.240;8.798;2023-01-16T02:13:19;3.80;;;1.73;;
31764;SDS011;18338;53.240;8.798;2023-01-16T02:15:46;2.03;;;1.20;;
31764;SDS011;18338;53.240;8.798;2023-01-16T02:18:31;3.67;;;1.25;;
31764;SDS011;18338;53.240;8.798;2023-01-16T02:24:10;2.40;;;1.30;;
31764;SDS011;18338;53.240;8.798;2023-01-16T02:38:13;3.60;;;1.73;;
31764;SDS011;18338;53.240;8.798;2023-01-16T02:40:52;4.97;;;1.85;;
31764;SDS011;18338;53.240;8.798;2023-01-16T02:43:36;2.60;;;1.65;;
31764;SDS011;18338;53.240;8.798;2023-01-16T02:46:35;4.95;;;1.75;;
31764;SDS011;18338;53.240;8.798;2023-01-16T02:49:21;4.93;;;1.85;;
31764;SDS011;18338;53.240;8.798;2023-01-16T02:52:05;3.33;;;1.55;;
31764;SDS011;18338;53.240;8.798;2023-01-16T02:54:42;5.53;;;1.90;;
31764;SDS011;18338;53.240;8.798;2023-01-16T02:57:16;4.18;;;1.50;;
31764;SDS011;18338;53.240;8.798;2023-01-16T02:59:45;4.47;;;1.92;;
31764;SDS011;18338;53.240;8.798;2023-01-16T03:02:14;4.27;;;1.80;;
31764;SDS011;18338;53.240;8.798;2023-01-16T03:04:48;6.45;;;2.15;;
31764;SDS011;18338;53.240;8.798;2023-01-16T03:16:04;4.37;;;2.33;;
31764;SDS011;18338;53.240;8.798;2023-01-16T03:21:27;5.27;;;1.83;;
31764;SDS011;18338;53.240;8.798;2023-01-16T03:26:55;6.23;;;2.30;;
31764;SDS011;18338;53.240;8.798;2023-01-16T03:29:31;6.60;;;2.13;;
31764;SDS011;18338;53.240;8.798;2023-01-16T03:32:10;3.70;;;1.63;;
31764;SDS011;18338;53.240;8.798;2023-01-16T03:37:31;3.35;;;1.70;;
31764;SDS011;18338;53.240;8.798;2023-01-16T03:40:08;3.08;;;1.60;;
31764;SDS011;18338;53.240;8.798;2023-01-16T03:42:39;3.67;;;1.63;;
31764;SDS011;18338;53.240;8.798;2023-01-16T03:45:21;4.82;;;1.50;;
31764;SDS011;18338;53.240;8.798;2023-01-16T03:48:02;4.03;;;1.63;;
31764;SDS011;18338;53.240;8.798;2023-01-16T03:50:33;5.65;;;1.75;;
31764;SDS011;18338;53.240;8.798;2023-01-16T03:53:03;2.95;;;1.40;;
31764;SDS011;18338;53.240;8.798;2023-01-16T03:58:47;4.00;;;1.50;;
31764;SDS011;18338;53.240;8.798;2023-01-16T04:01:26;2.78;;;1.20;;
31764;SDS011;18338;53.240;8.798;2023-01-16T04:07:03;6.83;;;1.30;;
31764;SDS011;18338;53.240;8.798;2023-01-16T04:12:08;4.35;;;1.85;;
31764;SDS011;18338;53.240;8.798;2023-01-16T04:14:40;3.92;;;1.40;;
31764;SDS011;18338;53.240;8.798;2023-01-16T04:17:08;4.43;;;1.70;;
31764;SDS011;18338;53.240;8.798;2023-01-16T04:19:35;4.93;;;1.17;;
31764;SDS011;18338;53.240;8.798;2023-01-16T04:22:09;2.03;;;1.08;;
31764;SDS011;18338;53.240;8.798;2023-01-16T04:24:45;3.92;;;1.20;;
31764;SDS011;18338;53.240;8.798;2023-01-16T04:27:12;2.50;;;1.40;;
31764;SDS011;18338;53.240;8.798;2023-01-16T04:29:39;3.20;;;1.27;;
31764;SDS011;18338;53.240;8.798;2023-01-16T04:32:05;4.10;;;1.20;;
31764;SDS011;18338;53.240;8.798;2023-01-16T04:34:32;2.40;;;1.00;;
31764;SDS011;18338;53.240;8.798;2023-01-16T04:36:59;2.85;;;1.00;;
31764;SDS011;18338;53.240;8.798;2023-01-16T04:39:25;2.67;;;1.00;;
31764;SDS011;18338;53.240;8.798;2023-01-16T04:41:52;2.53;;;1.13;;
31764;SDS011;18338;53.240;8.798;2023-01-16T04:44:18;1.67;;;0.80;;
31764;SDS011;18338;53.240;8.798;2023-01-16T04:46:45;3.17;;;1.25;;
31764;SDS011;18338;53.240;8.798;2023-01-16T04:49:11;3.13;;;1.27;;
31764;SDS011;18338;53.240;8.798;2023-01-16T04:51:38;5.00;;;1.10;;
31764;SDS011;18338;53.240;8.798;2023-01-16T04:54:06;3.13;;;1.23;;
31764;SDS011;18338;53.240;8.798;2023-01-16T04:56:35;3.60;;;1.30;;
31764;SDS011;18338;53.240;8.798;2023-01-16T04:59:02;1.97;;;1.00;;
31764;SDS011;18338;53.240;8.798;2023-01-16T05:01:28;3.38;;;0.90;;
31764;SDS011;18338;53.240;8.798;2023-01-16T05:04:01;3.65;;;1.08;;
31764;SDS011;18338;53.240;8.798;2023-01-16T05:06:29;1.48;;;0.93;;
31764;SDS011;18338;53.240;8.798;2023-01-16T05:08:56;3.22;;;1.00;;
31764;SDS011;18338;53.240;8.798;2023-01-16T05:11:23;2.25;;;1.33;;
31764;SDS011;18338;53.240;8.798;2023-01-16T05:13:49;3.50;;;1.30;;
31764;SDS011;18338;53.240;8.798;2023-01-16T05:16:16;3.10;;;1.30;;
31764;SDS011;18338;53.240;8.798;2023-01-16T05:18:43;1.85;;;1.10;;
31764;SDS011;18338;53.240;8.798;2023-01-16T05:21:09;2.05;;;1.30;;
31764;SDS011;18338;53.240;8.798;2023-01-16T05:23:36;2.72;;;1.48;;
31764;SDS011;18338;53.240;8.798;2023-01-16T05:26:06;2.67;;;1.15;;
31764;SDS011;18338;53.240;8.798;2023-01-16T05:28:33;3.10;;;1.30;;
31764;SDS011;18338;53.240;8.798;2023-01-16T05:31:01;2.67;;;1.38;;
31764;SDS011;18338;53.240;8.798;2023-01-16T05:33:28;4.22;;;1.55;;
31764;SDS011;18338;53.240;8.798;2023-01-16T05:35:55;3.45;;;1.50;;
31764;SDS011;18338;53.240;8.798;2023-01-16T05:38:22;4.10;;;1.30;;
31764;SDS011;18338;53.240;8.798;2023-01-16T05:40:49;6.43;;;1.70;;
31764;SDS011;18338;53.240;8.798;2023-01-16T05:43:16;2.43;;;1.40;;
31764;SDS011;18338;53.240;8.798;2023-01-16T05:45:43;5.40;;;1.60;;
31764;SDS011;18338;53.240;8.798;2023-01-16T05:48:09;3.10;;;1.57;;
31764;SDS011;18338;53.240;8.798;2023-01-16T05:50:36;3.80;;;1.90;;
31764;SDS011;18338;53.240;8.798;2023-01-16T05:53:03;2.70;;;1.73;;
31764;SDS011;18338;53.240;8.798;2023-01-16T05:55:29;2.90;;;1.70;;
31764;SDS011;18338;53.240;8.798;2023-01-16T05:57:56;3.67;;;1.97;;
31764;SDS011;18338;53.240;8.798;2023-01-16T06:00:23;5.83;;;2.00;;
31764;SDS011;18338;53.240;8.798;2023-01-16T06:02:50;4.30;;;2.03;;
31764;SDS011;18338;53.240;8.798;2023-01-16T06:05:17;5.73;;;2.07;;
31764;SDS011;18338;53.240;8.798;2023-01-16T06:07:43;2.27;;;1.80;;
31764;SDS011;18338;53.240;8.798;2023-01-16T06:10:10;2.60;;;1.53;;
31764;SDS011;18338;53.240;8.798;2023-01-16T06:12:37;4.00;;;1.40;;
31764;SDS011;18338;53.240;8.798;2023-01-16T06:15:04;2.60;;;1.50;;
31764;SDS011;18338;53.240;8.798;2023-01-16T06:17:31;2.38;;;1.90;;
31764;SDS011;18338;53.240;8.798;2023-01-16T06:19:58;3.67;;;1.50;;
31764;SDS011;18338;53.240;8.798;2023-01-16T06:22:25;3.03;;;1.63;;
31764;SDS011;18338;53.240;8.798;2023-01-16T06:24:55;3.43;;;1.60;;
31764;SDS011;18338;53.240;8.798;2023-01-16T06:27:21;2.63;;;1.50;;
31764;SDS011;18338;53.240;8.798;2023-01-16T06:29:48;5.37;;;2.00;;
31764;SDS011;18338;53.240;8.798;2023-01-16T06:32:15;4.45;;;1.90;;
31764;SDS011;18338;53.240;8.798;2023-01-16T06:34:44;3.07;;;2.23;;
31764;SDS011;18338;53.240;8.798;2023-01-16T06:37:11;5.40;;;2.07;;
31764;SDS011;18338;53.240;8.798;2023-01-16T06:39:38;5.70;;;2.57;;
31764;SDS011;18338;53.240;8.798;2023-01-16T06:42:05;5.07;;;2.60;;
31764;SDS011;18338;53.240;8.798;2023-01-16T06:44:32;4.20;;;2.70;;
31764;SDS011;18338;53.240;8.798;2023-01-16T06:46:59;3.23;;;2.63;;
31764;SDS011;18338;53.240;8.798;2023-01-16T06:49:27;5.20;;;2.93;;
31764;SDS011;18338;53.240;8.798;2023-01-16T06:51:54;3.47;;;2.90;;
31764;SDS011;18338;53.240;8.798;2023-01-16T06:54:20;4.40;;;2.83;;
31764;SDS011;18338;53.240;8.798;2023-01-16T06:56:47;6.10;;;3.13;;
31764;SDS011;18338;53.240;8.798;2023-01-16T06:59:14;4.07;;;3.03;;
31764;SDS011;18338;53.240;8.798;2023-01-16T07:01:40;4.50;;;3.15;;
31764;SDS011;18338;53.240;8.798;2023-01-16T07:04:07;5.63;;;2.90;;
31764;SDS011;18338;53.240;8.798;2023-01-16T07:06:36;5.27;;;3.20;;
31764;SDS011;18338;53.240;8.798;2023-01-16T07:09:04;4.40;;;3.43;;
31764;SDS011;18338;53.240;8.798;2023-01-16T07:11:31;3.80;;;3.13;;
31764;SDS011;18338;53.240;8.798;2023-01-16T07:13:57;6.40;;;3.37;;
31764;SDS011;18338;53.240;8.798;2023-01-16T07:17:09;5.13;;;3.30;;
31764;SDS011;18338;53.240;8.798;2023-01-16T07:19:56;4.50;;;3.50;;
31764;SDS011;18338;53.240;8.798;2023-01-16T07:22:45;6.43;;;3.50;;
31764;SDS011;18338;53.240;8.798;2023-01-16T07:25:14;6.85;;;4.00;;
31764;SDS011;18338;53.240;8.798;2023-01-16T07:27:45;4.28;;;3.28;;
31764;SDS011;18338;53.240;8.798;2023-01-16T07:30:14;3.97;;;2.73;;
31764;SDS011;18338;53.240;8.798;2023-01-16T07:32:46;6.37;;;3.10;;
31764;SDS011;18338;53.240;8.798;2023-01-16T07:35:14;4.20;;;2.20;;
31764;SDS011;18338;53.240;8.798;2023-01-16T07:37:41;4.80;;;2.30;;
31764;SDS011;18338;53.240;8.798;2023-01-16T07:40:09;3.63;;;1.83;;
31764;SDS011;18338;53.240;8.798;2023-01-16T07:42:36;3.53;;;2.20;;
31764;SDS011;18338;53.240;8.798;2023-01-16T07:45:03;4.87;;;2.00;;
31764;SDS011;18338;53.240;8.798;2023-01-16T07:47:31;3.87;;;2.00;;
31764;SDS011;18338;53.240;8.798;2023-01-16T07:50:00;3.27;;;1.83;;
31764;SDS011;18338;53.240;8.798;2023-01-16T07:52:27;5.07;;;2.20;;
31764;SDS011;18338;53.240;8.798;2023-01-16T07:54:54;3.87;;;1.80;;
31764;SDS011;18338;53.240;8.798;2023-01-16T07:57:21;2.87;;;1.70;;
31764;SDS011;18338;53.240;8.798;2023-01-16T07:59:48;2.67;;;1.40;;
31764;SDS011;18338;53.240;8.798;2023-01-16T08:02:15;3.63;;;1.27;;
31764;SDS011;18338;53.240;8.798;2023-01-16T08:04:42;2.87;;;1.50;;
31764;SDS011;18338;53.240;8.798;2023-01-16T08:07:09;2.90;;;1.33;;
31764;SDS011;18338;53.240;8.798;2023-01-16T08:09:36;3.23;;;1.60;;
31764;SDS011;18338;53.240;8.798;2023-01-16T08:12:03;3.03;;;1.10;;
31764;SDS011;18338;53.240;8.798;2023-01-16T08:14:30;2.93;;;1.00;;
31764;SDS011;18338;53.240;8.798;2023-01-16T08:16:57;4.07;;;1.33;;
31764;SDS011;18338;53.240;8.798;2023-01-16T08:19:24;3.23;;;0.93;;
31764;SDS011;18338;53.240;8.798;2023-01-16T08:21:51;2.17;;;1.20;;
31764;SDS011;18338;53.240;8.798;2023-01-16T08:24:17;2.37;;;1.03;;
31764;SDS011;18338;53.240;8.798;2023-01-16T08:29:19;3.50;;;1.13;;
31764;SDS011;18338;53.240;8.798;2023-01-16T08:31:46;1.90;;;1.30;;
31764;SDS011;18338;53.240;8.798;2023-01-16T08:34:13;1.60;;;1.30;;
31764;SDS011;18338;53.240;8.798;2023-01-16T08:36:41;3.93;;;1.17;;
31764;SDS011;18338;53.240;8.798;2023-01-16T08:39:08;2.47;;;1.30;;
31764;SDS011;18338;53.240;8.798;2023-01-16T08:41:37;3.20;;;1.43;;
31764;SDS011;18338;53.240;8.798;2023-01-16T08:44:22;2.57;;;1.10;;
31764;SDS011;18338;53.240;8.798;2023-01-16T08:47:10;4.67;;;1.10;;
31764;SDS011;18338;53.240;8.798;2023-01-16T08:50:02;2.53;;;1.30;;
31764;SDS011;18338;53.240;8.798;2023-01-16T08:52:48;3.50;;;1.30;;
31764;SDS011;18338;53.240;8.798;2023-01-16T08:55:15;2.20;;;1.70;;
31764;SDS011;18338;53.240;8.798;2023-01-16T08:57:41;1.77;;;1.47;;
31764;SDS011;18338;53.240;8.798;2023-01-16T09:00:08;5.27;;;1.40;;
31764;SDS011;18338;53.240;8.798;2023-01-16T09:02:35;2.33;;;1.13;;
31764;SDS011;18338;53.240;8.798;2023-01-16T09:05:04;3.47;;;1.30;;
31764;SDS011;18338;53.240;8.798;2023-01-16T09:07:31;2.67;;;1.10;;
31764;SDS011;18338;53.240;8.798;2023-01-16T09:09:58;2.20;;;1.08;;
31764;SDS011;18338;53.240;8.798;2023-01-16T09:12:25;2.25;;;0.88;;
31764;SDS011;18338;53.240;8.798;2023-01-16T09:15:10;1.40;;;1.00;;
31764;SDS011;18338;53.240;8.798;2023-01-16T09:17:37;2.10;;;0.90;;
31764;SDS011;18338;53.240;8.798;2023-01-16T09:20:03;2.63;;;1.30;;
31764;SDS011;18338;53.240;8.798;2023-01-16T09:22:31;5.13;;;1.13;;
31764;SDS011;18338;53.240;8.798;2023-01-16T09:24:59;1.27;;;0.80;;
31764;SDS011;18338;53.240;8.798;2023-01-16T09:27:25;4.72;;;0.90;;
31764;SDS011;18338;53.240;8.798;2023-01-16T09:29:52;1.10;;;0.80;;
31764;SDS011;18338;53.240;8.798;2023-01-16T09:32:19;1.10;;;0.88;;
31764;SDS011;18338;53.240;8.798;2023-01-16T09:34:46;2.80;;;0.80;;
31764;SDS011;18338;53.240;8.798;2023-01-16T09:37:13;1.55;;;0.90;;
31764;SDS011;18338;53.240;8.798;2023-01-16T09:39:39;4.05;;;0.80;;
31764;SDS011;18338;53.240;8.798;2023-01-16T09:44:59;1.50;;;0.70;;
31764;SDS011;18338;53.240;8.798;2023-01-16T09:47:29;2.35;;;0.70;;
31764;SDS011;18338;53.240;8.798;2023-01-16T09:50:04;2.70;;;1.00;;
31764;SDS011;18338;53.240;8.798;2023-01-16T09:52:38;1.85;;;0.80;;
31764;SDS011;18338;53.240;8.798;2023-01-16T09:55:42;1.98;;;0.85;;
31764;SDS011;18338;53.240;8.798;2023-01-16T09:58:30;1.75;;;0.82;;
31764;SDS011;18338;53.240;8.798;2023-01-16T10:01:08;1.83;;;0.77;;
31764;SDS011;18338;53.240;8.798;2023-01-16T10:03:41;1.50;;;0.80;;
31764;SDS011;18338;53.240;8.798;2023-01-16T10:06:24;2.15;;;0.88;;
31764;SDS011;18338;53.240;8.798;2023-01-16T10:14:39;2.35;;;0.90;;
31764;SDS011;18338;53.240;8.798;2023-01-16T10:26:17;1.13;;;0.80;;
31764;SDS011;18338;53.240;8.798;2023-01-16T10:31:50;1.90;;;1.00;;
31764;SDS011;18338;53.240;8.798;2023-01-16T10:34:21;3.50;;;0.90;;
31764;SDS011;18338;53.240;8.798;2023-01-16T10:36:54;3.05;;;0.70;;
31764;SDS011;18338;53.240;8.798;2023-01-16T10:39:26;4.32;;;1.00;;
31764;SDS011;18338;53.240;8.798;2023-01-16T10:42:08;2.28;;;0.80;;
31764;SDS011;18338;53.240;8.798;2023-01-16T10:44:58;2.13;;;1.08;;
31764;SDS011;18338;53.240;8.798;2023-01-16T10:47:49;1.95;;;0.93;;
31764;SDS011;18338;53.240;8.798;2023-01-16T10:50:36;2.90;;;1.00;;
31764;SDS011;18338;53.240;8.798;2023-01-16T10:53:04;1.42;;;0.85;;
31764;SDS011;18338;53.240;8.798;2023-01-16T10:55:33;3.33;;;0.90;;
31764;SDS011;18338;53.240;8.798;2023-01-16T10:58:15;3.65;;;0.80;;
31764;SDS011;18338;53.240;8.798;2023-01-16T11:00:48;1.73;;;0.70;;
31764;SDS011;18338;53.240;8.798;2023-01-16T11:06:08;1.10;;;0.75;;
31764;SDS011;18338;53.240;8.798;2023-01-16T11:08:45;2.78;;;0.93;;
31764;SDS011;18338;53.240;8.798;2023-01-16T11:11:30;2.45;;;0.70;;
31764;SDS011;18338;53.240;8.798;2023-01-16T11:14:23;1.00;;;0.60;;
31764;SDS011;18338;53.240;8.798;2023-01-16T11:17:28;1.77;;;0.63;;
31764;SDS011;18338;53.240;8.798;2023-01-16T11:20:25;1.85;;;0.70;;
31764;SDS011;18338;53.240;8.798;2023-01-16T11:23:16;1.35;;;0.57;;
31764;SDS011;18338;53.240;8.798;2023-01-16T11:25:46;0.82;;;0.60;;
31764;SDS011;18338;53.240;8.798;2023-01-16T11:28:21;2.03;;;1.02;;
31764;SDS011;18338;53.240;8.798;2023-01-16T11:30:51;2.58;;;1.20;;
31764;SDS011;18338;53.240;8.798;2023-01-16T11:33:40;2.30;;;1.00;;
31764;SDS011;18338;53.240;8.798;2023-01-16T11:36:11;1.23;;;0.85;;
31764;SDS011;18338;53.240;8.798;2023-01-16T11:38:45;2.25;;;0.90;;
31764;SDS011;18338;53.240;8.798;2023-01-16T11:41:16;2.20;;;0.80;;
31764;SDS011;18338;53.240;8.798;2023-01-16T11:44:03;1.88;;;0.80;;
31764;SDS011;18338;53.240;8.798;2023-01-16T11:47:01;1.95;;;0.70;;
31764;SDS011;18338;53.240;8.798;2023-01-16T11:49:32;1.83;;;0.82;;
31764;SDS011;18338;53.240;8.798;2023-01-16T11:52:04;3.13;;;1.00;;
31764;SDS011;18338;53.240;8.798;2023-01-16T11:54:31;2.85;;;0.70;;
31764;SDS011;18338;53.240;8.798;2023-01-16T11:59:39;2.05;;;0.77;;
31764;SDS011;18338;53.240;8.798;2023-01-16T12:02:48;2.28;;;1.10;;
31764;SDS011;18338;53.240;8.798;2023-01-16T12:05:37;2.80;;;1.08;;
31764;SDS011;18338;53.240;8.798;2023-01-16T12:10:56;2.92;;;0.90;;
31764;SDS011;18338;53.240;8.798;2023-01-16T12:13:27;3.50;;;0.80;;
31764;SDS011;18338;53.240;8.798;2023-01-16T12:16:25;2.75;;;0.90;;
31764;SDS011;18338;53.240;8.798;2023-01-16T12:21:56;3.00;;;0.90;;
31764;SDS011;18338;53.240;8.798;2023-01-16T12:27:50;2.00;;;0.88;;
31764;SDS011;18338;53.240;8.798;2023-01-16T12:33:45;2.28;;;1.02;;
31764;SDS011;18338;53.240;8.798;2023-01-16T12:36:37;2.57;;;1.00;;
31764;SDS011;18338;53.240;8.798;2023-01-16T12:39:16;1.37;;;1.00;;
31764;SDS011;18338;53.240;8.798;2023-01-16T12:45:09;2.50;;;0.90;;
31764;SDS011;18338;53.240;8.798;2023-01-16T12:50:30;2.53;;;1.17;;
31764;SDS011;18338;53.240;8.798;2023-01-16T12:53:22;1.80;;;0.95;;
31764;SDS011;18338;53.240;8.798;2023-01-16T12:59:18;3.30;;;1.20;;
31764;SDS011;18338;53.240;8.798;2023-01-16T13:02:06;3.95;;;1.20;;
31764;SDS011;18338;53.240;8.798;2023-01-16T13:04:44;2.92;;;1.38;;
31764;SDS011;18338;53.240;8.798;2023-01-16T13:07:16;2.08;;;0.90;;
31764;SDS011;18338;53.240;8.798;2023-01-16T13:12:51;1.90;;;0.80;;
31764;SDS011;18338;53.240;8.798;2023-01-16T13:15:39;3.53;;;1.15;;
31764;SDS011;18338;53.240;8.798;2023-01-16T13:18:19;2.55;;;0.82;;
31764;SDS011;18338;53.240;8.798;2023-01-16T13:21:08;1.90;;;1.00;;
31764;SDS011;18338;53.240;8.798;2023-01-16T13:23:51;1.90;;;1.17;;
31764;SDS011;18338;53.240;8.798;2023-01-16T13:26:26;3.08;;;1.27;;
31764;SDS011;18338;53.240;8.798;2023-01-16T13:29:10;3.13;;;0.90;;
31764;SDS011;18338;53.240;8.798;2023-01-16T13:31:58;1.48;;;0.95;;
31764;SDS011;18338;53.240;8.798;2023-01-16T13:34:49;3.28;;;1.10;;
31764;SDS011;18338;53.240;8.798;2023-01-16T13:43:36;1.23;;;0.80;;
31764;SDS011;18338;53.240;8.798;2023-01-16T13:46:35;1.73;;;0.80;;
31764;SDS011;18338;53.240;8.798;2023-01-16T13:49:03;3.53;;;1.48;;
31764;SDS011;18338;53.240;8.798;2023-01-16T13:51:31;3.42;;;1.20;;
31764;SDS011;18338;53.240;8.798;2023-01-16T13:54:11;1.95;;;1.05;;
31764;SDS011;18338;53.240;8.798;2023-01-16T13:56:41;5.23;;;1.17;;
31764;SDS011;18338;53.240;8.798;2023-01-16T13:59:24;2.03;;;1.05;;
31764;SDS011;18338;53.240;8.798;2023-01-16T14:15:53;1.13;;;0.80;;
31764;SDS011;18338;53.240;8.798;2023-01-16T14:24:03;1.00;;;0.85;;
31764;SDS011;18338;53.240;8.798;2023-01-16T14:26:45;2.58;;;1.00;;
31764;SDS011;18338;53.240;8.798;2023-01-16T14:31:55;2.27;;;0.87;;
31764;SDS011;18338;53.240;8.798;2023-01-16T14:34:26;4.75;;;0.90;;
31764;SDS011;18338;53.240;8.798;2023-01-16T14:37:01;2.00;;;1.03;;
31764;SDS011;18338;53.240;8.798;2023-01-16T14:39:31;2.40;;;1.02;;
31764;SDS011;18338;53.240;8.798;2023-01-16T14:42:05;2.93;;;0.53;;
31764;SDS011;18338;53.240;8.798;2023-01-16T14:54:18;1.67;;;0.67;;
31764;SDS011;18338;53.240;8.798;2023-01-16T14:57:16;1.97;;;0.83;;
31764;SDS011;18338;53.240;8.798;2023-01-16T14:59:58;2.83;;;1.20;;
31764;SDS011;18338;53.240;8.798;2023-01-16T15:02:28;3.20;;;1.40;;
31764;SDS011;18338;53.240;8.798;2023-01-16T15:10:16;1.40;;;0.80;;
31764;SDS011;18338;53.240;8.798;2023-01-16T15:12:52;1.00;;;0.80;;
31764;SDS011;18338;53.240;8.798;2023-01-16T15:15:23;1.25;;;0.70;;
31764;SDS011;18338;53.240;8.798;2023-01-16T15:18:01;1.70;;;0.80;;
31764;SDS011;18338;53.240;8.798;2023-01-16T15:20:58;2.00;;;1.03;;
31764;SDS011;18338;53.240;8.798;2023-01-16T15:23:44;1.57;;;1.00;;
31764;SDS011;18338;53.240;8.798;2023-01-16T15:26:14;1.70;;;0.87;;
31764;SDS011;18338;53.240;8.798;2023-01-16T15:32:10;1.10;;;0.50;;
31764;SDS011;18338;53.240;8.798;2023-01-16T15:34:47;1.43;;;0.80;;
31764;SDS011;18338;53.240;8.798;2023-01-16T15:37:28;2.03;;;0.77;;
31764;SDS011;18338;53.240;8.798;2023-01-16T15:39:58;2.73;;;0.73;;
31764;SDS011;18338;53.240;8.798;2023-01-16T15:42:26;2.57;;;0.87;;
31764;SDS011;18338;53.240;8.798;2023-01-16T15:45:15;2.20;;;0.80;;
31764;SDS011;18338;53.240;8.798;2023-01-16T15:51:02;1.45;;;0.80;;
31764;SDS011;18338;53.240;8.798;2023-01-16T15:53:37;1.07;;;0.80;;
31764;SDS011;18338;53.240;8.798;2023-01-16T15:56:33;3.87;;;0.93;;
31764;SDS011;18338;53.240;8.798;2023-01-16T16:01:53;2.17;;;0.68;;
31764;SDS011;18338;53.240;8.798;2023-01-16T16:04:34;2.97;;;0.80;;
31764;SDS011;18338;53.240;8.798;2023-01-16T16:07:02;1.57;;;0.63;;
31764;SDS011;18338;53.240;8.798;2023-01-16T16:09:29;0.77;;;0.67;;
31764;SDS011;18338;53.240;8.798;2023-01-16T16:11:56;1.73;;;0.93;;
31764;SDS011;18338;53.240;8.798;2023-01-16T16:14:30;1.53;;;0.80;;
31764;SDS011;18338;53.240;8.798;2023-01-16T16:23:28;1.57;;;1.10;;
31764;SDS011;18338;53.240;8.798;2023-01-16T16:25:50;1.67;;;1.30;;
31764;SDS011;18338;53.240;8.798;2023-01-16T16:30:57;3.27;;;1.10;;
31764;SDS011;18338;53.240;8.798;2023-01-16T16:33:26;2.27;;;1.13;;
31764;SDS011;18338;53.240;8.798;2023-01-16T16:35:54;1.43;;;1.03;;
31764;SDS011;18338;53.240;8.798;2023-01-16T16:38:25;1.87;;;1.00;;
31764;SDS011;18338;53.240;8.798;2023-01-16T16:43:41;3.33;;;1.00;;
31764;SDS011;18338;53.240;8.798;2023-01-16T16:48:50;1.27;;;0.90;;
31764;SDS011;18338;53.240;8.798;2023-01-16T16:51:19;3.07;;;1.20;;
31764;SDS011;18338;53.240;8.798;2023-01-16T16:53:51;1.57;;;1.03;;
31764;SDS011;18338;53.240;8.798;2023-01-16T16:56:27;1.80;;;1.00;;
31764;SDS011;18338;53.240;8.798;2023-01-16T16:58:56;0.97;;;0.87;;
31764;SDS011;18338;53.240;8.798;2023-01-16T17:01:34;1.90;;;1.10;;
31764;SDS011;18338;53.240;8.798;2023-01-16T17:04:03;1.63;;;1.13;;
31764;SDS011;18338;53.240;8.798;2023-01-16T17:06:32;1.17;;;0.80;;
31764;SDS011;18338;53.240;8.798;2023-01-16T17:09:02;3.03;;;1.33;;
31764;SDS011;18338;53.240;8.798;2023-01-16T17:11:30;3.10;;;1.23;;
31764;SDS011;18338;53.240;8.798;2023-01-16T17:13:57;1.77;;;1.10;;
31764;SDS011;18338;53.240;8.798;2023-01-16T17:16:24;2.17;;;1.10;;
31764;SDS011;18338;53.240;8.798;2023-01-16T17:18:57;4.43;;;2.60;;
31764;SDS011;18338;53.240;8.798;2023-01-16T17:21:29;1.43;;;0.93;;
31764;SDS011;18338;53.240;8.798;2023-01-16T17:23:56;1.63;;;0.75;;
31764;SDS011;18338;53.240;8.798;2023-01-16T17:26:23;1.00;;;0.90;;
31764;SDS011;18338;53.240;8.798;2023-01-16T17:28:50;1.10;;;0.73;;
31764;SDS011;18338;53.240;8.798;2023-01-16T17:31:19;1.67;;;1.20;;
31764;SDS011;18338;53.240;8.798;2023-01-16T17:33:46;1.92;;;0.95;;
31764;SDS011;18338;53.240;8.798;2023-01-16T17:36:20;1.27;;;1.13;;
31764;SDS011;18338;53.240;8.798;2023-01-16T17:38:49;1.73;;;0.90;;
31764;SDS011;18338;53.240;8.798;2023-01-16T17:41:17;2.17;;;1.17;;
31764;SDS011;18338;53.240;8.798;2023-01-16T17:44:17;2.00;;;1.20;;
31764;SDS011;18338;53.240;8.798;2023-01-16T17:47:21;1.70;;;0.90;;
31764;SDS011;18338;53.240;8.798;2023-01-16T17:49:48;2.03;;;1.53;;
31764;SDS011;18338;53.240;8.798;2023-01-16T17:52:33;1.10;;;0.90;;
31764;SDS011;18338;53.240;8.798;2023-01-16T17:55:02;1.90;;;1.03;;
31764;SDS011;18338;53.240;8.798;2023-01-16T17:57:47;2.28;;;1.02;;
31764;SDS011;18338;53.240;8.798;2023-01-16T18:00:14;1.50;;;1.20;;
31764;SDS011;18338;53.240;8.798;2023-01-16T18:02:41;2.33;;;1.43;;